createdAt,value
2016-08-04T00:00:00.311Z,99.99
2016-08-04T00:01:00.300Z,99.99
2016-08-04T00:02:00.282Z,99.99
2016-08-04T00:02:59.542Z,99.99
2016-08-04T00:04:00.271Z,99.99
2016-08-04T00:05:00.236Z,99.99
2016-08-04T00:06:00.272Z,99.99
2016-08-04T00:07:00.220Z,99.99
2016-08-04T00:07:59.650Z,99.99
2016-08-04T00:09:00.169Z,99.99
2016-08-04T00:10:00.165Z,99.99
2016-08-04T00:11:00.157Z,99.99
2016-08-04T00:12:00.148Z,99.99
2016-08-04T00:13:00.121Z,99.99
2016-08-04T00:13:59.395Z,99.99
2016-08-04T00:15:00.099Z,99.99
2016-08-04T00:15:59.368Z,99.99
2016-08-04T00:17:00.081Z,99.99
2016-08-04T00:18:00.082Z,99.99
2016-08-04T00:19:00.050Z,99.99
2016-08-04T00:19:59.326Z,99.99
2016-08-04T00:20:59.299Z,99.99
2016-08-04T00:22:00.023Z,99.99
2016-08-04T00:22:59.997Z,99.99
2016-08-04T00:23:59.980Z,99.99
2016-08-04T00:24:59.967Z,99.99
2016-08-04T00:25:59.955Z,99.99
2016-08-04T00:26:59.227Z,99.99
2016-08-04T00:27:59.928Z,99.99
2016-08-04T00:28:59.923Z,99.99
2016-08-04T00:29:59.968Z,99.99
2016-08-04T00:30:59.888Z,99.99
2016-08-04T00:31:59.161Z,99.99
2016-08-04T00:32:59.857Z,99.99
2016-08-04T00:33:59.887Z,99.99
2016-08-04T00:34:59.829Z,99.99
2016-08-04T00:35:59.850Z,99.99
2016-08-04T00:36:59.809Z,99.99
2016-08-04T00:37:59.802Z,99.99
2016-08-04T00:38:59.778Z,99.99
2016-08-04T00:39:59.763Z,99.99
2016-08-04T00:40:59.748Z,99.99
2016-08-04T00:41:59.015Z,99.99
2016-08-04T00:42:59.717Z,99.99
2016-08-04T00:43:59.703Z,99.99
2016-08-04T00:44:59.687Z,99.99
2016-08-04T00:45:59.679Z,99.99
2016-08-04T00:46:59.668Z,99.99
2016-08-04T00:47:59.656Z,99.99
2016-08-04T00:48:59.636Z,99.99
2016-08-04T00:49:59.636Z,99.99
2016-08-04T00:50:59.608Z,99.99
2016-08-04T00:51:59.600Z,99.99
2016-08-04T00:52:59.583Z,99.99
2016-08-04T00:53:59.570Z,99.99
2016-08-04T00:54:59.557Z,99.99
2016-08-04T00:55:59.544Z,99.99
2016-08-04T00:56:59.526Z,99.99
2016-08-04T00:57:59.520Z,99.99
2016-08-04T00:58:59.520Z,99.99
2016-08-04T00:59:59.488Z,99.99
2016-08-04T01:00:59.471Z,99.99
2016-08-04T01:01:59.472Z,99.99
2016-08-04T01:02:59.445Z,99.99
2016-08-04T01:03:59.434Z,99.99
2016-08-04T01:04:59.417Z,99.99
2016-08-04T01:05:58.689Z,99.99
2016-08-04T01:06:59.396Z,99.99
2016-08-04T01:07:59.379Z,99.99
2016-08-04T01:08:59.370Z,99.99
2016-08-04T01:09:59.355Z,99.99
2016-08-04T01:10:58.616Z,99.99
2016-08-04T01:11:59.329Z,99.99
2016-08-04T01:12:59.314Z,99.99
2016-08-04T01:13:59.297Z,99.99
2016-08-04T01:14:59.288Z,99.99
2016-08-04T01:15:59.266Z,99.99
2016-08-04T01:16:58.539Z,99.99
2016-08-04T01:17:59.234Z,99.99
2016-08-04T01:18:59.249Z,99.99
2016-08-04T01:19:59.217Z,99.99
2016-08-04T01:20:59.199Z,99.99
2016-08-04T01:21:59.184Z,99.99
2016-08-04T01:22:59.164Z,99.99
2016-08-04T01:23:59.158Z,99.99
2016-08-04T01:24:59.145Z,99.99
2016-08-04T01:25:59.134Z,99.99
2016-08-04T01:26:58.401Z,99.99
2016-08-04T01:27:59.104Z,99.99
2016-08-04T01:28:59.091Z,99.99
2016-08-04T01:29:58.358Z,99.99
2016-08-04T01:30:59.062Z,99.99
2016-08-04T01:31:58.338Z,99.99
2016-08-04T01:32:59.030Z,99.99
2016-08-04T01:33:59.029Z,99.99
2016-08-04T01:34:58.546Z,99.99
2016-08-04T01:35:58.998Z,99.99
2016-08-04T01:36:58.976Z,99.99
2016-08-04T01:37:58.970Z,99.99
2016-08-04T01:38:58.947Z,99.99
2016-08-04T01:39:58.936Z,99.99
2016-08-04T01:40:58.212Z,99.99
2016-08-04T01:41:58.907Z,99.99
2016-08-04T01:42:58.898Z,99.99
2016-08-04T01:43:58.168Z,99.99
2016-08-04T01:44:58.867Z,99.99
2016-08-04T01:45:58.853Z,99.99
2016-08-04T01:46:58.119Z,99.99
2016-08-04T01:47:58.819Z,99.99
2016-08-04T01:48:58.819Z,99.99
2016-08-04T01:50:58.783Z,99.99
2016-08-04T01:51:58.056Z,99.99
2016-08-04T01:52:58.762Z,99.99
2016-08-04T01:53:58.745Z,99.99
2016-08-04T01:54:58.743Z,99.99
2016-08-04T01:55:58.011Z,99.99
2016-08-04T01:56:58.695Z,99.99
2016-08-04T01:57:58.697Z,99.99
2016-08-04T01:58:57.958Z,99.99
2016-08-04T01:59:58.660Z,99.99
2016-08-04T02:00:58.647Z,99.99
2016-08-04T02:01:58.630Z,99.99
2016-08-04T02:02:58.620Z,99.99
2016-08-04T02:03:58.602Z,99.99
2016-08-04T02:04:58.591Z,99.99
2016-08-04T02:05:58.575Z,99.99
2016-08-04T02:06:58.561Z,99.99
2016-08-04T02:07:58.549Z,99.99
2016-08-04T02:08:58.529Z,99.99
2016-08-04T02:09:58.524Z,99.99
2016-08-04T02:10:58.505Z,99.99
2016-08-04T02:11:58.489Z,99.99
2016-08-04T02:12:58.481Z,99.99
2016-08-04T02:13:58.460Z,99.99
2016-08-04T02:14:57.734Z,99.99
2016-08-04T02:15:58.440Z,99.99
2016-08-04T02:16:58.419Z,99.99
2016-08-04T02:17:58.400Z,99.99
2016-08-04T02:18:58.391Z,99.99
2016-08-04T02:19:58.378Z,99.99
2016-08-04T02:20:58.371Z,99.99
2016-08-04T02:21:58.351Z,99.99
2016-08-04T02:22:58.337Z,99.99
2016-08-04T02:23:58.321Z,99.99
2016-08-04T02:24:58.324Z,99.99
2016-08-04T02:25:58.298Z,99.99
2016-08-04T02:26:58.277Z,99.99
2016-08-04T02:27:58.270Z,99.99
2016-08-04T02:28:58.254Z,99.99
2016-08-04T02:29:58.238Z,99.99
2016-08-04T02:30:58.225Z,99.99
2016-08-04T02:31:58.217Z,99.99
2016-08-04T02:32:58.206Z,99.99
2016-08-04T02:33:58.276Z,99.99
2016-08-04T02:34:58.166Z,99.99
2016-08-04T02:35:58.161Z,99.99
2016-08-04T02:36:58.140Z,99.99
2016-08-04T02:37:57.558Z,99.99
2016-08-04T02:38:58.118Z,99.99
2016-08-04T02:39:58.099Z,99.99
2016-08-04T02:40:58.089Z,99.99
2016-08-04T02:41:58.069Z,99.99
2016-08-04T02:42:58.055Z,99.99
2016-08-04T02:43:58.079Z,99.99
2016-08-04T02:44:57.307Z,99.99
2016-08-04T02:45:58.017Z,99.99
2016-08-04T02:46:58.009Z,99.99
2016-08-04T02:47:57.981Z,99.99
2016-08-04T02:48:57.261Z,99.99
2016-08-04T02:49:58.002Z,99.99
2016-08-04T02:50:57.945Z,99.99
2016-08-04T02:51:57.990Z,99.99
2016-08-04T02:52:57.911Z,99.99
2016-08-04T02:53:57.900Z,99.99
2016-08-04T02:54:57.886Z,99.99
2016-08-04T02:55:57.877Z,99.99
2016-08-04T02:56:57.858Z,99.99
2016-08-04T02:57:57.861Z,99.99
2016-08-04T02:58:57.841Z,99.99
2016-08-04T02:59:57.815Z,99.99
2016-08-04T03:00:57.802Z,99.99
2016-08-04T03:01:57.789Z,99.99
2016-08-04T03:02:57.777Z,99.99
2016-08-04T03:03:57.777Z,99.99
2016-08-04T03:04:57.750Z,99.99
2016-08-04T03:05:57.740Z,99.99
2016-08-04T03:06:57.724Z,99.99
2016-08-04T03:07:57.731Z,99.99
2016-08-04T03:08:57.689Z,99.99
2016-08-04T03:09:57.678Z,99.99
2016-08-04T03:10:57.670Z,99.99
2016-08-04T03:11:57.695Z,99.99
2016-08-04T03:12:57.637Z,99.99
2016-08-04T03:13:57.671Z,99.99
2016-08-04T03:14:57.611Z,99.99
2016-08-04T03:15:57.578Z,99.99
2016-08-04T03:16:56.863Z,99.99
2016-08-04T03:17:57.561Z,99.99
2016-08-04T03:18:57.544Z,99.99
2016-08-04T03:19:57.530Z,99.99
2016-08-04T03:20:57.521Z,99.99
2016-08-04T03:21:57.506Z,99.99
2016-08-04T03:22:57.499Z,99.99
2016-08-04T03:23:57.530Z,99.99
2016-08-04T03:24:57.470Z,99.99
2016-08-04T03:25:57.461Z,99.99
2016-08-04T03:26:56.716Z,99.99
2016-08-04T03:27:57.427Z,99.99
2016-08-04T03:28:57.405Z,99.99
2016-08-04T03:29:57.395Z,99.99
2016-08-04T03:30:57.370Z,99.99
2016-08-04T03:31:57.370Z,99.99
2016-08-04T03:32:56.631Z,99.99
2016-08-04T03:33:57.387Z,99.99
2016-08-04T03:34:56.612Z,99.99
2016-08-04T03:35:57.330Z,99.99
2016-08-04T03:36:57.289Z,99.99
2016-08-04T03:37:57.269Z,99.99
2016-08-04T03:38:57.259Z,99.99
2016-08-04T03:39:57.248Z,99.99
2016-08-04T03:40:57.234Z,99.99
2016-08-04T03:41:57.231Z,99.99
2016-08-04T03:42:57.198Z,99.99
2016-08-04T03:43:57.186Z,99.99
2016-08-04T03:44:57.173Z,99.99
2016-08-04T03:45:57.178Z,99.99
2016-08-04T03:46:57.140Z,99.99
2016-08-04T03:47:57.147Z,99.99
2016-08-04T03:48:57.114Z,99.99
2016-08-04T03:49:57.105Z,99.99
2016-08-04T03:50:57.078Z,99.99
2016-08-04T03:51:57.081Z,99.99
2016-08-04T03:52:57.061Z,99.99
2016-08-04T03:53:57.047Z,99.99
2016-08-04T03:54:57.032Z,99.99
2016-08-04T03:55:57.013Z,99.99
2016-08-04T03:56:57.005Z,99.99
2016-08-04T03:57:57.000Z,99.99
2016-08-04T03:58:56.980Z,99.99
2016-08-04T03:59:56.237Z,99.99
2016-08-04T04:00:56.946Z,99.99
2016-08-04T04:01:56.943Z,99.99
2016-08-04T04:02:56.917Z,99.99
2016-08-04T04:03:56.907Z,99.99
2016-08-04T04:04:56.884Z,99.99
2016-08-04T04:05:56.878Z,99.99
2016-08-04T04:06:56.870Z,99.99
2016-08-04T04:07:56.131Z,99.99
2016-08-04T04:08:56.830Z,99.99
2016-08-04T04:09:56.810Z,99.99
2016-08-04T04:10:56.810Z,99.99
2016-08-04T04:11:56.801Z,99.99
2016-08-04T04:12:56.776Z,99.99
2016-08-04T04:13:56.765Z,99.99
2016-08-04T04:14:56.749Z,99.99
2016-08-04T04:15:56.736Z,99.99
2016-08-04T04:16:56.800Z,99.99
2016-08-04T04:17:56.701Z,99.99
2016-08-04T04:18:56.741Z,99.99
2016-08-04T04:19:56.679Z,99.99
2016-08-04T04:20:56.666Z,99.99
2016-08-04T04:21:56.646Z,99.99
2016-08-04T04:22:56.631Z,99.99
2016-08-04T04:23:56.623Z,99.99
2016-08-04T04:24:56.641Z,99.99
2016-08-04T04:25:56.592Z,99.99
2016-08-04T04:26:56.590Z,99.99
2016-08-04T04:27:56.565Z,99.99
2016-08-04T04:28:56.546Z,99.99
2016-08-04T04:29:56.532Z,99.99
2016-08-04T04:30:55.810Z,99.99
2016-08-04T04:31:56.505Z,99.99
2016-08-04T04:32:56.491Z,99.99
2016-08-04T04:33:56.479Z,99.99
2016-08-04T04:34:56.467Z,99.99
2016-08-04T04:35:56.455Z,99.99
2016-08-04T04:36:56.437Z,99.99
2016-08-04T04:37:56.422Z,99.99
2016-08-04T04:38:56.410Z,99.99
2016-08-04T04:39:56.398Z,99.99
2016-08-04T04:40:56.390Z,99.99
2016-08-04T04:41:56.365Z,99.99
2016-08-04T04:42:56.357Z,99.99
2016-08-04T04:43:56.336Z,99.99
2016-08-04T04:44:56.317Z,99.99
2016-08-04T04:45:56.331Z,99.99
2016-08-04T04:46:55.574Z,99.99
2016-08-04T04:47:56.285Z,99.99
2016-08-04T04:48:55.552Z,99.99
2016-08-04T04:49:56.262Z,99.99
2016-08-04T04:50:56.230Z,99.99
2016-08-04T04:51:55.504Z,99.99
2016-08-04T04:52:56.205Z,99.99
2016-08-04T04:53:55.491Z,99.99
2016-08-04T04:54:56.181Z,99.99
2016-08-04T04:55:56.164Z,99.99
2016-08-04T04:56:56.181Z,99.99
2016-08-04T04:57:56.135Z,99.99
2016-08-04T04:58:55.411Z,99.99
2016-08-04T04:59:56.122Z,99.99
2016-08-04T05:00:55.374Z,99.99
2016-08-04T05:01:56.085Z,99.99
2016-08-04T05:02:56.119Z,99.99
2016-08-04T05:03:56.058Z,99.99
2016-08-04T05:04:56.039Z,99.99
2016-08-04T05:05:55.340Z,99.99
2016-08-04T05:06:56.013Z,99.99
2016-08-04T05:07:56.010Z,99.99
2016-08-04T05:08:55.989Z,99.99
2016-08-04T05:09:55.963Z,99.99
2016-08-04T05:10:55.958Z,99.99
2016-08-04T05:11:55.228Z,99.99
2016-08-04T05:12:55.219Z,99.99
2016-08-04T05:13:55.918Z,99.99
2016-08-04T05:14:55.894Z,99.99
2016-08-04T05:15:55.887Z,99.99
2016-08-04T05:16:55.860Z,99.99
2016-08-04T05:17:55.861Z,99.99
2016-08-04T05:18:55.126Z,99.99
2016-08-04T05:19:55.830Z,99.99
2016-08-04T05:21:55.789Z,99.99
2016-08-04T05:22:55.773Z,99.99
2016-08-04T05:23:55.765Z,99.99
2016-08-04T05:24:55.758Z,99.99
2016-08-04T05:25:55.741Z,99.99
2016-08-04T05:26:55.738Z,99.99
2016-08-04T05:27:55.731Z,99.99
2016-08-04T05:28:55.698Z,99.99
2016-08-04T05:29:55.680Z,99.99
2016-08-04T05:30:54.950Z,99.99
2016-08-04T05:31:55.648Z,99.99
2016-08-04T05:32:54.914Z,99.99
2016-08-04T05:33:55.627Z,99.99
2016-08-04T05:34:55.632Z,99.99
2016-08-04T05:35:55.593Z,99.99
2016-08-04T05:36:55.583Z,99.99
2016-08-04T05:37:55.566Z,99.99
2016-08-04T05:38:55.558Z,99.99
2016-08-04T05:39:55.555Z,99.99
2016-08-04T05:40:54.807Z,99.99
2016-08-04T05:41:55.520Z,99.99
2016-08-04T05:42:55.511Z,99.99
2016-08-04T05:43:54.765Z,99.99
2016-08-04T05:44:55.460Z,99.99
2016-08-04T05:45:55.459Z,99.99
2016-08-04T05:46:55.439Z,99.99
2016-08-04T05:47:54.709Z,99.99
2016-08-04T05:48:54.699Z,99.99
2016-08-04T05:49:55.412Z,99.99
2016-08-04T05:50:55.387Z,99.99
2016-08-04T05:51:55.376Z,99.99
2016-08-04T05:52:54.641Z,99.99
2016-08-04T05:53:55.352Z,99.99
2016-08-04T05:54:55.332Z,99.99
2016-08-04T05:55:55.317Z,99.99
2016-08-04T05:56:54.591Z,99.99
2016-08-04T05:57:55.287Z,99.99
2016-08-04T05:58:55.274Z,99.99
2016-08-04T05:59:55.270Z,99.99
2016-08-04T06:00:55.256Z,99.99
2016-08-04T06:01:55.265Z,99.99
2016-08-04T06:02:55.249Z,99.99
2016-08-04T06:03:55.221Z,99.99
2016-08-04T06:04:54.482Z,99.99
2016-08-04T06:05:55.184Z,99.99
2016-08-04T06:06:54.456Z,99.99
2016-08-04T06:07:55.169Z,99.99
2016-08-04T06:08:54.430Z,99.99
2016-08-04T06:09:55.178Z,99.99
2016-08-04T06:10:55.112Z,99.99
2016-08-04T06:11:55.106Z,99.99
2016-08-04T06:12:55.098Z,99.99
2016-08-04T06:13:55.090Z,99.99
2016-08-04T06:14:55.067Z,99.99
2016-08-04T06:15:55.060Z,99.99
2016-08-04T06:16:55.045Z,99.99
2016-08-04T06:17:55.021Z,99.99
2016-08-04T06:18:55.020Z,99.99
2016-08-04T06:19:54.999Z,99.99
2016-08-04T06:20:54.268Z,99.99
2016-08-04T06:21:54.258Z,99.99
2016-08-04T06:22:54.236Z,99.99
2016-08-04T06:23:54.946Z,99.99
2016-08-04T06:24:54.938Z,99.99
2016-08-04T06:25:54.908Z,99.99
2016-08-04T06:26:54.909Z,99.99
2016-08-04T06:27:54.897Z,99.99
2016-08-04T06:28:54.873Z,99.99
2016-08-04T06:29:54.871Z,99.99
2016-08-04T06:30:54.845Z,99.99
2016-08-04T06:31:54.848Z,99.99
2016-08-04T06:32:54.109Z,99.99
2016-08-04T06:33:54.818Z,99.99
2016-08-04T06:34:54.808Z,99.99
2016-08-04T06:35:54.776Z,99.99
2016-08-04T06:36:54.768Z,99.99
2016-08-04T06:37:54.760Z,99.99
2016-08-04T06:38:54.746Z,99.99
2016-08-04T06:39:54.731Z,99.99
2016-08-04T06:40:54.713Z,99.99
2016-08-04T06:41:54.704Z,99.99
2016-08-04T06:42:54.686Z,99.99
2016-08-04T06:43:54.674Z,99.99
2016-08-04T06:44:53.951Z,99.99
2016-08-04T06:45:54.658Z,99.99
2016-08-04T06:46:53.917Z,99.99
2016-08-04T06:47:54.625Z,99.99
2016-08-04T06:48:54.852Z,99.99
2016-08-04T06:49:54.868Z,99.99
2016-08-04T06:50:53.879Z,99.99
2016-08-04T06:51:54.589Z,99.99
2016-08-04T06:52:54.566Z,99.99
2016-08-04T06:53:54.562Z,99.99
2016-08-04T06:54:54.546Z,99.99
2016-08-04T06:55:53.804Z,99.99
2016-08-04T06:56:54.530Z,99.99
2016-08-04T06:57:54.495Z,99.99
2016-08-04T06:58:53.773Z,99.99
2016-08-04T06:59:54.479Z,99.99
2016-08-04T07:00:54.530Z,99.99
2016-08-04T07:01:54.439Z,99.99
2016-08-04T07:02:54.438Z,99.99
2016-08-04T07:03:54.429Z,99.99
2016-08-04T07:04:54.408Z,99.99
2016-08-04T07:05:53.679Z,99.99
2016-08-04T07:06:53.658Z,99.99
2016-08-04T07:07:54.374Z,99.99
2016-08-04T07:08:54.368Z,99.99
2016-08-04T07:09:54.346Z,99.99
2016-08-04T07:10:54.373Z,99.99
2016-08-04T07:11:54.334Z,99.99
2016-08-04T07:12:54.306Z,99.99
2016-08-04T07:13:54.294Z,99.99
2016-08-04T07:14:53.610Z,99.99
2016-08-04T07:15:54.267Z,99.99
2016-08-04T07:16:54.259Z,99.99
2016-08-04T07:17:54.251Z,99.99
2016-08-04T07:18:53.531Z,99.99
2016-08-04T07:19:54.214Z,99.99
2016-08-04T07:20:54.218Z,99.99
2016-08-04T07:21:54.188Z,99.99
2016-08-04T07:22:54.176Z,99.99
2016-08-04T07:23:53.460Z,99.99
2016-08-04T07:24:54.152Z,99.99
2016-08-04T07:25:53.428Z,99.99
2016-08-04T07:26:53.460Z,99.99
2016-08-04T07:27:53.402Z,99.99
2016-08-04T07:28:54.119Z,99.99
2016-08-04T07:29:54.092Z,99.99
2016-08-04T07:30:54.141Z,99.99
2016-08-04T07:31:54.068Z,99.99
2016-08-04T07:32:54.054Z,99.99
2016-08-04T07:33:54.034Z,99.99
2016-08-04T07:34:54.078Z,99.99
2016-08-04T07:35:53.300Z,99.99
2016-08-04T07:36:54.000Z,99.99
2016-08-04T07:37:53.266Z,99.99
2016-08-04T07:38:54.040Z,99.99
2016-08-04T07:39:53.990Z,99.99
2016-08-04T07:40:53.250Z,99.99
2016-08-04T07:41:53.226Z,99.99
2016-08-04T07:42:53.930Z,99.99
2016-08-04T07:43:53.202Z,99.99
2016-08-04T07:44:53.911Z,99.99
2016-08-04T07:45:53.882Z,99.99
2016-08-04T07:46:53.875Z,99.99
2016-08-04T07:47:53.871Z,99.99
2016-08-04T07:48:53.854Z,99.99
2016-08-04T07:49:53.849Z,99.99
2016-08-04T07:50:53.110Z,99.99
2016-08-04T07:51:53.819Z,99.99
2016-08-04T07:52:54.047Z,99.99
2016-08-04T07:53:53.786Z,99.99
2016-08-04T07:54:53.776Z,99.99
2016-08-04T07:55:53.766Z,99.99
2016-08-04T07:56:53.756Z,99.99
2016-08-04T07:57:53.750Z,99.99
2016-08-04T07:58:53.738Z,99.99
2016-08-04T07:59:53.713Z,99.99
2016-08-04T08:00:53.697Z,99.99
2016-08-04T08:01:53.691Z,99.99
2016-08-04T08:02:52.972Z,99.99
2016-08-04T08:03:53.679Z,99.99
2016-08-04T08:04:52.939Z,99.3
2016-08-04T08:05:53.646Z,99.4
2016-08-04T08:06:53.639Z,98.54
2016-08-04T08:07:53.631Z,98.44
2016-08-04T08:08:53.613Z,99.02
2016-08-04T08:09:53.620Z,98.63
2016-08-04T08:10:52.870Z,98.24
2016-08-04T08:11:53.591Z,97.19
2016-08-04T08:12:53.581Z,97.24
2016-08-04T08:13:53.565Z,98.77
2016-08-04T08:14:53.559Z,98.72
2016-08-04T08:15:53.551Z,97.14
2016-08-04T08:16:53.529Z,97.67
2016-08-04T08:17:53.525Z,98.39
2016-08-04T08:18:52.792Z,99.64
2016-08-04T08:19:53.500Z,99.93
2016-08-04T08:20:53.498Z,99.99
2016-08-04T08:21:53.536Z,99.99
2016-08-04T08:22:52.750Z,99.99
2016-08-04T08:23:52.737Z,99.35
2016-08-04T08:24:53.439Z,97.67
2016-08-04T08:25:52.772Z,96.37
2016-08-04T08:26:53.425Z,95.36
2016-08-04T08:27:52.707Z,94.96
2016-08-04T08:28:52.695Z,94.29
2016-08-04T08:29:53.402Z,93.66
2016-08-04T08:30:53.392Z,94
2016-08-04T08:31:53.431Z,92.22
2016-08-04T08:32:52.661Z,91.3
2016-08-04T08:33:53.370Z,90.28
2016-08-04T08:34:53.367Z,90.95
2016-08-04T08:35:52.641Z,92.26
2016-08-04T08:36:53.336Z,93.04
2016-08-04T08:37:52.608Z,92.27
2016-08-04T08:38:53.335Z,91.16
2016-08-04T08:39:53.313Z,92.12
2016-08-04T08:40:52.602Z,92.56
2016-08-04T08:41:53.296Z,91.01
2016-08-04T08:42:53.297Z,90.19
2016-08-04T08:43:53.294Z,88.97
2016-08-04T08:44:53.281Z,90.77
2016-08-04T08:45:53.271Z,90.72
2016-08-04T08:46:53.262Z,90.91
2016-08-04T08:47:53.268Z,91.44
2016-08-04T08:48:52.528Z,92.6
2016-08-04T08:49:52.528Z,93.91
2016-08-04T08:50:53.240Z,94.73
2016-08-04T08:51:52.510Z,95.11
2016-08-04T08:52:53.221Z,95.59
2016-08-04T08:53:53.207Z,95.69
2016-08-04T08:54:52.480Z,95.21
2016-08-04T08:55:53.185Z,96.17
2016-08-04T08:56:53.189Z,95.26
2016-08-04T08:57:53.165Z,94.63
2016-08-04T08:58:53.160Z,94.54
2016-08-04T08:59:53.148Z,94.29
2016-08-04T09:00:52.429Z,93.91
2016-08-04T09:01:53.138Z,94.29
2016-08-04T09:02:52.404Z,93.81
2016-08-04T09:03:52.394Z,94.15
2016-08-04T09:04:53.198Z,92.16
2016-08-04T09:05:53.098Z,94.82
2016-08-04T09:06:53.085Z,93.28
2016-08-04T09:07:53.080Z,94
2016-08-04T09:08:53.094Z,94.39
2016-08-04T09:09:52.338Z,93.91
2016-08-04T09:10:53.042Z,93.04
2016-08-04T09:11:53.036Z,92.56
2016-08-04T09:12:53.033Z,91.69
2016-08-04T09:13:53.016Z,91.98
2016-08-04T09:14:53.019Z,91.5
2016-08-04T09:15:52.995Z,91.35
2016-08-04T09:16:52.981Z,91.93
2016-08-04T09:17:52.980Z,89.81
2016-08-04T09:18:52.979Z,88.93
2016-08-04T09:19:52.960Z,88.83
2016-08-04T09:20:52.961Z,87.96
2016-08-04T09:21:52.226Z,87.77
2016-08-04T09:22:52.944Z,86.85
2016-08-04T09:23:52.941Z,87.67
2016-08-04T09:24:52.917Z,88.11
2016-08-04T09:25:52.915Z,88.21
2016-08-04T09:26:52.908Z,88.59
2016-08-04T09:27:52.888Z,88.59
2016-08-04T09:28:52.899Z,88.98
2016-08-04T09:29:52.164Z,87.92
2016-08-04T09:30:52.874Z,87.24
2016-08-04T09:31:52.867Z,87.67
2016-08-04T09:32:52.867Z,88.25
2016-08-04T09:33:52.867Z,87.48
2016-08-04T09:34:52.850Z,89.07
2016-08-04T09:35:52.117Z,89.37
2016-08-04T09:37:52.824Z,85.77
2016-08-04T09:38:52.099Z,85.25
2016-08-04T09:39:52.822Z,87.77
2016-08-04T09:40:52.808Z,88.02
2016-08-04T09:41:52.795Z,87.29
2016-08-04T09:42:52.801Z,84.82
2016-08-04T09:43:52.803Z,83.26
2016-08-04T09:44:52.061Z,82.2
2016-08-04T09:45:52.124Z,82.08
2016-08-04T09:46:52.763Z,82.58
2016-08-04T09:47:52.840Z,82.53
2016-08-04T09:48:52.745Z,82.29
2016-08-04T09:49:52.112Z,83.16
2016-08-04T09:50:52.738Z,83.22
2016-08-04T09:52:52.718Z,83.66
2016-08-04T09:53:52.731Z,84.05
2016-08-04T09:54:52.709Z,84.39
2016-08-04T09:55:52.697Z,83.75
2016-08-04T09:56:52.689Z,84.53
2016-08-04T09:57:52.689Z,84.53
2016-08-04T09:58:52.683Z,85.36
2016-08-04T09:59:52.672Z,85.36
2016-08-04T10:00:52.668Z,85.99
2016-08-04T10:01:52.651Z,86.18
2016-08-04T10:02:52.650Z,85.7
2016-08-04T10:03:51.928Z,86.66
2016-08-04T10:04:51.912Z,86.38
2016-08-04T10:05:52.619Z,86.28
2016-08-04T10:06:51.899Z,86.28
2016-08-04T10:07:52.616Z,87.24
2016-08-04T10:08:52.600Z,86.57
2016-08-04T10:09:52.584Z,87.53
2016-08-04T10:10:52.819Z,88.02
2016-08-04T10:11:52.565Z,87.44
2016-08-04T10:12:52.558Z,86.32
2016-08-04T10:13:52.551Z,85.45
2016-08-04T10:14:51.897Z,85.45
2016-08-04T10:15:52.540Z,85.55
2016-08-04T10:16:52.527Z,85.36
2016-08-04T10:17:52.508Z,86.42
2016-08-04T10:18:52.510Z,85.74
2016-08-04T10:19:52.502Z,86.8
2016-08-04T10:20:52.508Z,85.78
2016-08-04T10:21:52.485Z,85.3
2016-08-04T10:22:52.572Z,84.47
2016-08-04T10:23:52.457Z,83.8
2016-08-04T10:24:52.457Z,83.99
2016-08-04T10:25:51.730Z,84.43
2016-08-04T10:26:52.459Z,84.95
2016-08-04T10:27:52.425Z,85.94
2016-08-04T10:28:51.783Z,85.64
2016-08-04T10:29:52.417Z,86.52
2016-08-04T10:30:52.402Z,86.66
2016-08-04T10:31:52.383Z,86.52
2016-08-04T10:32:52.379Z,85.84
2016-08-04T10:33:52.376Z,85.4
2016-08-04T10:34:52.371Z,84.33
2016-08-04T10:35:52.356Z,84.14
2016-08-04T10:36:52.345Z,84.24
2016-08-04T10:37:52.336Z,85.74
2016-08-04T10:38:51.656Z,85.36
2016-08-04T10:39:52.306Z,84.53
2016-08-04T10:40:52.297Z,85.06
2016-08-04T10:41:52.287Z,84.43
2016-08-04T10:42:52.287Z,83.51
2016-08-04T10:43:52.279Z,82.73
2016-08-04T10:44:52.265Z,84.42
2016-08-04T10:45:52.259Z,83.84
2016-08-04T10:46:52.247Z,83.16
2016-08-04T10:47:51.528Z,83.45
2016-08-04T10:48:52.245Z,83.94
2016-08-04T10:49:51.498Z,82.73
2016-08-04T10:50:52.215Z,83.56
2016-08-04T10:51:51.492Z,84.43
2016-08-04T10:52:52.209Z,86.32
2016-08-04T10:53:52.183Z,85.74
2016-08-04T10:54:52.173Z,87.15
2016-08-04T10:55:52.175Z,87.2
2016-08-04T10:56:52.154Z,87.63
2016-08-04T10:57:52.147Z,86.47
2016-08-04T10:58:52.141Z,86.28
2016-08-04T10:59:52.142Z,86.71
2016-08-04T11:00:52.122Z,86.71
2016-08-04T11:01:51.387Z,87.63
2016-08-04T11:02:51.387Z,86.08
2016-08-04T11:03:52.099Z,86.32
2016-08-04T11:04:52.079Z,86.13
2016-08-04T11:05:52.075Z,85.88
2016-08-04T11:06:52.058Z,84.33
2016-08-04T11:07:52.058Z,85.11
2016-08-04T11:08:52.101Z,85.21
2016-08-04T11:09:52.040Z,85.16
2016-08-04T11:10:52.031Z,86.52
2016-08-04T11:11:52.023Z,86.52
2016-08-04T11:12:51.290Z,85.55
2016-08-04T11:13:52.079Z,83.85
2016-08-04T11:14:51.982Z,83.81
2016-08-04T11:15:51.984Z,83.85
2016-08-04T11:16:51.981Z,84.39
2016-08-04T11:17:51.250Z,85.16
2016-08-04T11:18:51.957Z,85.16
2016-08-04T11:19:51.222Z,84.68
2016-08-04T11:20:51.927Z,85.02
2016-08-04T11:21:51.202Z,84.78
2016-08-04T11:22:51.908Z,85.06
2016-08-04T11:23:51.895Z,85.16
2016-08-04T11:24:51.897Z,85.94
2016-08-04T11:25:51.171Z,85.84
2016-08-04T11:26:51.863Z,85.41
2016-08-04T11:27:51.892Z,85.45
2016-08-04T11:28:51.852Z,85.02
2016-08-04T11:29:51.865Z,85.06
2016-08-04T11:30:51.828Z,84.39
2016-08-04T11:31:51.105Z,85.16
2016-08-04T11:32:51.097Z,84.97
2016-08-04T11:33:51.849Z,84.2
2016-08-04T11:34:51.792Z,85.06
2016-08-04T11:35:51.059Z,85.8
2016-08-04T11:36:51.762Z,86.47
2016-08-04T11:37:51.761Z,87.34
2016-08-04T11:38:51.750Z,87.35
2016-08-04T11:39:51.811Z,87.54
2016-08-04T11:40:51.732Z,86.58
2016-08-04T11:41:51.722Z,86.82
2016-08-04T11:42:51.706Z,87.2
2016-08-04T11:43:51.693Z,87.2
2016-08-04T11:44:51.684Z,86.66
2016-08-04T11:45:51.675Z,87.24
2016-08-04T11:46:51.669Z,86.72
2016-08-04T11:47:51.659Z,87.15
2016-08-04T11:48:51.642Z,86.76
2016-08-04T11:49:50.920Z,86.47
2016-08-04T11:50:50.910Z,86.38
2016-08-04T11:51:50.906Z,86.18
2016-08-04T11:52:50.889Z,85.89
2016-08-04T11:53:51.602Z,85.41
2016-08-04T11:54:51.576Z,85.6
2016-08-04T11:55:50.860Z,86.24
2016-08-04T11:56:51.554Z,85.85
2016-08-04T11:57:51.550Z,86.33
2016-08-04T11:58:51.552Z,86.82
2016-08-04T11:59:50.810Z,85.85
2016-08-04T12:00:51.513Z,85.75
2016-08-04T12:01:51.504Z,86.58
2016-08-04T12:02:51.492Z,87.45
2016-08-04T12:03:51.487Z,87.26
2016-08-04T12:04:51.476Z,87.74
2016-08-04T12:05:51.464Z,87.93
2016-08-04T12:06:51.447Z,87.35
2016-08-04T12:07:50.728Z,86.96
2016-08-04T12:08:51.425Z,87.35
2016-08-04T12:09:51.420Z,87.45
2016-08-04T12:10:51.415Z,87.45
2016-08-04T12:11:50.688Z,86.82
2016-08-04T12:12:50.678Z,86.58
2016-08-04T12:13:51.390Z,86.04
2016-08-04T12:14:51.390Z,86.14
2016-08-04T12:15:51.347Z,86.08
2016-08-04T12:16:51.346Z,86.52
2016-08-04T12:17:51.351Z,86.57
2016-08-04T12:18:51.318Z,87.49
2016-08-04T12:19:51.321Z,88.51
2016-08-04T12:20:50.580Z,88.6
2016-08-04T12:21:51.281Z,89.09
2016-08-04T12:22:51.278Z,89.81
2016-08-04T12:23:51.270Z,89.86
2016-08-04T12:24:51.254Z,89.76
2016-08-04T12:25:50.525Z,89.67
2016-08-04T12:26:51.233Z,90.05
2016-08-04T12:27:51.229Z,90.15
2016-08-04T12:28:51.224Z,89.95
2016-08-04T12:29:51.196Z,89.47
2016-08-04T12:30:51.187Z,89.09
2016-08-04T12:31:50.460Z,89.47
2016-08-04T12:32:51.163Z,89.14
2016-08-04T12:33:51.167Z,90
2016-08-04T12:34:51.144Z,89.81
2016-08-04T12:35:51.124Z,89.23
2016-08-04T12:36:51.128Z,89.04
2016-08-04T12:37:51.109Z,89.53
2016-08-04T12:38:51.099Z,89.28
2016-08-04T12:39:50.375Z,89.47
2016-08-04T12:40:51.084Z,88.37
2016-08-04T12:41:51.066Z,88.75
2016-08-04T12:42:51.048Z,89.62
2016-08-04T12:43:51.050Z,88.65
2016-08-04T12:44:51.030Z,88.41
2016-08-04T12:45:51.022Z,88.65
2016-08-04T12:46:50.293Z,88.27
2016-08-04T12:47:50.985Z,88.79
2016-08-04T12:48:50.983Z,88.7
2016-08-04T12:49:50.979Z,88.17
2016-08-04T12:50:50.257Z,88.36
2016-08-04T12:51:50.239Z,88.75
2016-08-04T12:52:50.935Z,87.78
2016-08-04T12:53:50.923Z,88.17
2016-08-04T12:54:50.271Z,88.36
2016-08-04T12:55:50.910Z,88.55
2016-08-04T12:56:50.893Z,88.45